createdAt,value
2022-09-20T00:03:42.003Z,11.36
2022-09-20T00:06:36.726Z,11.71
2022-09-20T00:09:31.078Z,11.73
2022-09-20T00:12:16.884Z,11.38
2022-09-20T00:13:32.385Z,11.46
2022-09-20T00:15:16.381Z,11.77
2022-09-20T00:18:22.803Z,11.64
2022-09-20T00:19:29.687Z,11.64
2022-09-20T00:20:37.211Z,11.53
2022-09-20T00:21:44.463Z,11.49
2022-09-20T00:22:51.656Z,11.56
2022-09-20T00:24:03.001Z,11.77
2022-09-20T00:25:10.498Z,11.41
2022-09-20T00:26:15.192Z,11.78
2022-09-20T00:27:22.915Z,11.54
2022-09-20T00:28:29.954Z,11.67
2022-09-20T00:29:34.556Z,11.63
2022-09-20T00:30:39.719Z,11.63
2022-09-20T00:31:50.731Z,11.82
2022-09-20T00:32:57.834Z,11.64
2022-09-20T00:34:20.882Z,11.56
2022-09-20T00:35:25.913Z,11.68
2022-09-20T00:36:32.688Z,11.47
2022-09-20T00:37:47.799Z,11.73
2022-09-20T00:39:01.282Z,11.74
2022-09-20T00:40:15.331Z,11.72
2022-09-20T00:41:24.543Z,11.71
2022-09-20T00:42:33.656Z,11.71
2022-09-20T00:44:04.014Z,11.84
2022-09-20T00:45:27.073Z,11.66
2022-09-20T00:46:51.985Z,11.59
2022-09-20T00:48:22.574Z,11.84
2022-09-20T00:49:32.443Z,11.54
2022-09-20T00:50:38.885Z,11.86
2022-09-20T00:51:58.165Z,11.53
2022-09-20T00:53:29.363Z,11.54
2022-09-20T00:54:37.537Z,11.63
2022-09-20T00:56:19.077Z,11.58
2022-09-20T00:57:24.210Z,11.90
2022-09-20T00:58:42.307Z,11.60
2022-09-20T00:59:58.174Z,11.73
2022-09-20T01:01:03.167Z,11.94
2022-09-20T01:02:14.179Z,11.75
2022-09-20T01:03:23.194Z,11.68
2022-09-20T01:04:45.526Z,11.66
2022-09-20T01:05:59.267Z,11.71
2022-09-20T01:07:10.196Z,11.86
2022-09-20T01:08:17.791Z,11.69
2022-09-20T01:09:38.357Z,11.63
2022-09-20T01:10:47.719Z,11.66
2022-09-20T01:12:05.448Z,11.68
2022-09-20T01:13:18.951Z,11.89
2022-09-20T01:14:26.955Z,11.72
2022-09-20T01:15:36.046Z,11.93
2022-09-20T01:16:52.330Z,11.76
2022-09-20T01:18:17.823Z,11.75
2022-09-20T01:20:02.835Z,11.73
2022-09-20T01:21:11.993Z,11.66
2022-09-20T01:22:38.423Z,11.99
2022-09-20T01:24:29.335Z,11.99
2022-09-20T01:26:18.861Z,12.02
2022-09-20T01:27:45.036Z,11.99
2022-09-20T01:29:51.007Z,11.94
2022-09-20T01:31:17.458Z,12.01
2022-09-20T01:32:35.734Z,11.99
2022-09-20T01:34:13.938Z,11.83
2022-09-20T01:35:23.567Z,11.90
2022-09-20T01:37:22.909Z,11.81
2022-09-20T01:39:10.195Z,11.84
2022-09-20T01:41:00.103Z,11.84
2022-09-20T01:42:16.291Z,11.94
2022-09-20T01:43:31.292Z,12.01
2022-09-20T01:45:01.447Z,12.03
2022-09-20T01:46:30.542Z,11.84
2022-09-20T01:48:34.104Z,12.04
2022-09-20T01:50:04.637Z,12.04
2022-09-20T01:51:39.305Z,11.99
2022-09-20T01:53:16.840Z,12.07
2022-09-20T01:54:58.481Z,11.79
2022-09-20T01:58:15.716Z,12.07
2022-09-20T02:00:04.564Z,11.77
2022-09-20T02:01:26.780Z,12.07
2022-09-20T02:03:14.551Z,12.07
2022-09-20T02:05:00.437Z,12.10
2022-09-20T02:06:35.225Z,11.83
2022-09-20T02:07:57.680Z,12.09
2022-09-20T02:09:56.246Z,12.09
2022-09-20T02:11:50.441Z,11.83
2022-09-20T02:13:27.187Z,12.06
2022-09-20T02:14:57.851Z,12.07
2022-09-20T02:16:08.023Z,12.07
2022-09-20T02:17:55.922Z,11.81
2022-09-20T02:19:31.229Z,12.00
2022-09-20T02:21:27.760Z,11.96
2022-09-20T02:24:28.746Z,12.05
2022-09-20T02:26:13.879Z,12.06
2022-09-20T02:27:48.534Z,11.85
2022-09-20T02:29:17.629Z,12.07
2022-09-20T02:30:49.596Z,12.05
2022-09-20T02:32:52.746Z,12.05
2022-09-20T02:34:23.839Z,11.99
2022-09-20T02:35:31.222Z,12.05
2022-09-20T02:37:01.625Z,11.80
2022-09-20T02:38:12.115Z,12.07
2022-09-20T03:05:16.235Z,11.75
2022-09-20T03:06:45.166Z,11.94
2022-09-20T03:08:15.680Z,11.95
2022-09-20T03:10:38.443Z,12.05
2022-09-20T03:12:37.775Z,12.05
2022-09-20T03:14:21.305Z,11.94
2022-09-20T03:16:03.261Z,12.05
2022-09-20T03:17:44.898Z,12.06
2022-09-20T03:19:16.331Z,11.77
2022-09-20T03:21:14.196Z,12.09
2022-09-20T03:22:55.052Z,11.73
2022-09-20T03:24:39.851Z,12.08
2022-09-20T03:26:12.371Z,12.04
2022-09-20T03:27:50.783Z,12.09
2022-09-20T03:29:12.512Z,11.83
2022-09-20T03:30:49.530Z,11.78
2022-09-20T03:32:19.608Z,12.10
2022-09-20T03:33:51.955Z,12.09
2022-09-20T03:35:44.766Z,12.11
2022-09-20T03:37:36.962Z,12.12
2022-09-20T03:39:22.058Z,11.89
2022-09-20T03:41:13.447Z,12.11
2022-09-20T03:42:30.355Z,12.12
2022-09-20T03:44:19.913Z,11.86
2022-09-20T03:45:58.981Z,12.14
2022-09-20T03:47:41.213Z,11.77
2022-09-20T03:48:56.614Z,12.12
2022-09-20T03:50:29.133Z,12.15
2022-09-20T03:52:22.615Z,11.89
2022-09-20T03:54:59.923Z,12.18
2022-09-20T03:56:47.508Z,12.16
2022-09-20T03:58:32.068Z,12.15
2022-09-20T04:00:22.253Z,12.15
2022-09-20T04:02:04.012Z,11.92
2022-09-20T04:03:51.372Z,12.15
2022-09-20T04:05:07.474Z,12.15
2022-09-20T04:06:46.414Z,12.15
2022-09-20T04:08:40.232Z,12.13
2022-09-20T04:10:37.394Z,12.03
2022-09-20T04:12:25.056Z,12.15
2022-09-20T04:13:38.488Z,12.03
2022-09-20T04:15:08.974Z,11.90
2022-09-20T04:16:44.303Z,11.84
2022-09-20T04:18:27.687Z,12.03
2022-09-20T04:19:48.603Z,12.03
2022-09-20T04:21:27.115Z,12.07
2022-09-20T04:22:43.570Z,11.74
2022-09-20T04:24:23.225Z,12.09
2022-09-20T04:25:54.337Z,11.93
2022-09-20T04:27:13.698Z,11.90
2022-09-20T04:29:07.447Z,12.08
2022-09-20T04:30:24.453Z,11.85
2022-09-20T04:32:02.355Z,11.91
2022-09-20T04:37:52.597Z,12.07
2022-09-20T04:39:26.893Z,12.07
2022-09-20T04:41:17.427Z,12.07
2022-09-20T04:42:52.176Z,12.07
2022-09-20T04:44:44.520Z,12.04
2022-09-20T04:46:33.471Z,12.04
2022-09-20T04:48:22.141Z,12.06
2022-09-20T04:50:39.062Z,11.73
2022-09-20T04:52:09.948Z,12.05
2022-09-20T04:53:53.962Z,12.07
2022-09-20T04:55:57.621Z,12.03
2022-09-20T04:57:23.124Z,12.02
2022-09-20T04:58:39.169Z,11.73
2022-09-20T05:02:36.955Z,12.07
2022-09-20T05:04:19.500Z,12.08
2022-09-20T05:05:45.911Z,12.06
2022-09-20T05:07:29.251Z,12.09
2022-09-20T05:09:19.801Z,12.10
2022-09-20T05:10:49.255Z,12.07
2022-09-20T05:12:44.008Z,12.12
2022-09-20T05:14:26.188Z,12.14
2022-09-20T05:15:50.620Z,12.02
2022-09-20T05:17:05.188Z,12.13
2022-09-20T05:18:42.605Z,12.14
2022-09-20T05:20:44.381Z,12.20
2022-09-20T05:22:19.076Z,12.20
2022-09-20T05:24:15.720Z,12.22
2022-09-20T05:26:03.952Z,12.13
2022-09-20T05:27:42.506Z,12.25
2022-09-20T05:29:30.102Z,12.27
2022-09-20T05:31:09.856Z,12.29
2022-09-20T05:33:01.587Z,12.09
2022-09-20T05:34:45.146Z,12.25
2022-09-20T05:36:10.313Z,12.31
2022-09-20T05:37:55.854Z,12.21
2022-09-20T05:39:32.560Z,12.32
2022-09-20T05:41:14.576Z,12.04
2022-09-20T05:43:39.091Z,12.19
2022-09-20T05:45:44.706Z,12.31
2022-09-20T05:47:24.322Z,12.22
2022-09-20T05:49:16.925Z,12.07
2022-09-20T05:51:25.494Z,12.33
2022-09-20T05:53:25.834Z,12.34
2022-09-20T05:55:10.570Z,12.32
2022-09-20T05:56:29.874Z,12.34
2022-09-20T05:58:08.935Z,12.36
2022-09-20T06:00:21.679Z,12.39
2022-09-20T06:01:33.116Z,12.38
2022-09-20T06:04:39.592Z,12.39
2022-09-20T06:04:58.026Z,12.07
2022-09-20T06:06:55.867Z,12.24
2022-09-20T06:08:49.369Z,12.23
2022-09-20T06:23:00.609Z,12.25
2022-09-20T06:24:54.341Z,12.57
2022-09-20T06:26:11.377Z,12.59
2022-09-20T06:27:30.124Z,12.41
2022-09-20T06:28:46.220Z,12.30
2022-09-20T06:30:04.125Z,12.31
2022-09-20T06:31:10.457Z,12.32
2022-09-20T06:32:18.907Z,12.40
2022-09-20T06:33:26.267Z,12.55
2022-09-20T06:34:30.910Z,12.31
2022-09-20T06:36:40.212Z,12.24
2022-09-20T06:38:46.773Z,12.61
2022-09-20T06:41:08.797Z,12.49
2022-09-20T06:42:15.516Z,12.41
2022-09-20T06:43:20.058Z,12.47
2022-09-20T06:44:24.718Z,12.54
2022-09-20T06:45:29.347Z,12.37
2022-09-20T06:46:36.586Z,12.54
2022-09-20T06:47:40.735Z,12.51
2022-09-20T06:48:45.000Z,12.35
2022-09-20T06:49:51.734Z,12.32
2022-09-20T06:50:56.426Z,12.55
2022-09-20T06:52:01.890Z,12.26
2022-09-20T06:53:10.774Z,12.22
2022-09-20T06:56:36.983Z,12.19
2022-09-20T06:58:11.404Z,12.37
2022-09-20T06:59:38.650Z,12.22
2022-09-20T07:00:42.789Z,12.47
2022-09-20T07:01:46.955Z,12.19
2022-09-20T07:02:51.886Z,12.51
2022-09-20T07:03:56.245Z,12.23
2022-09-20T07:05:00.497Z,12.23
2022-09-20T07:06:04.804Z,12.36
2022-09-20T07:07:18.387Z,12.34
2022-09-20T07:08:25.205Z,12.63
2022-09-20T07:09:29.094Z,12.48
2022-09-20T07:10:44.531Z,12.53
2022-09-20T07:11:48.395Z,12.61
2022-09-20T07:12:55.259Z,12.66
2022-09-20T07:13:59.573Z,12.67
2022-09-20T07:15:03.777Z,12.67
2022-09-20T07:16:11.874Z,12.67
2022-09-20T07:17:15.593Z,12.71
2022-09-20T07:18:20.180Z,12.65
2022-09-20T07:19:23.937Z,12.72
2022-09-20T07:20:28.970Z,12.60
2022-09-20T07:21:34.692Z,12.74
2022-09-20T07:22:38.489Z,12.66
2022-09-20T07:23:42.915Z,12.76
2022-09-20T07:24:52.545Z,12.78
2022-09-20T07:26:01.517Z,12.69
2022-09-20T07:27:06.316Z,12.77
2022-09-20T07:28:10.243Z,12.68
2022-09-20T07:29:13.956Z,12.83
2022-09-20T07:30:21.745Z,12.75
2022-09-20T07:31:28.129Z,12.86
2022-09-20T07:32:31.938Z,12.76
2022-09-20T07:33:43.503Z,12.81
2022-09-20T07:34:47.333Z,12.88
2022-09-20T07:35:58.234Z,12.93
2022-09-20T07:37:02.690Z,12.90
2022-09-20T07:38:10.628Z,12.98
2022-09-20T07:39:14.849Z,13.02
2022-09-20T07:40:20.295Z,13.02
2022-09-20T07:41:25.150Z,13.11
2022-09-20T07:42:29.938Z,13.16
2022-09-20T07:43:34.659Z,13.20
2022-09-20T07:44:41.070Z,13.24
2022-09-20T07:45:44.751Z,13.35
2022-09-20T07:46:54.017Z,13.43
2022-09-20T07:48:05.609Z,13.51
2022-09-20T07:49:10.869Z,13.70
2022-09-20T07:50:15.171Z,13.89
2022-09-20T07:51:19.698Z,14.00
2022-09-20T07:52:23.419Z,14.23
2022-09-20T07:53:26.974Z,14.40
2022-09-20T07:54:31.444Z,14.62
2022-09-20T07:55:36.049Z,14.84
2022-09-20T07:56:41.493Z,15.00
2022-09-20T07:57:48.408Z,15.12
2022-09-20T07:58:52.723Z,15.27
2022-09-20T07:59:57.257Z,15.38
2022-09-20T08:01:09.581Z,15.75
2022-09-20T08:02:16.512Z,16.51
2022-09-20T08:03:20.556Z,17.47
2022-09-20T08:04:24.639Z,18.36
2022-09-20T08:05:28.745Z,19.17
2022-09-20T08:06:37.230Z,19.71
2022-09-20T08:07:40.965Z,19.93
2022-09-20T08:08:45.237Z,20.21
2022-09-20T08:09:49.078Z,20.33
2022-09-20T08:10:55.737Z,20.31
2022-09-20T08:11:59.446Z,20.08
2022-09-20T08:14:29.703Z,19.32
2022-09-20T08:15:40.152Z,18.98
2022-09-20T08:16:50.729Z,18.61
2022-09-20T08:17:55.009Z,18.30
2022-09-20T08:19:03.489Z,17.99
2022-09-20T08:20:08.290Z,17.75
2022-09-20T08:21:11.967Z,17.46
2022-09-20T08:22:15.910Z,17.23
2022-09-20T08:23:24.043Z,17.13
2022-09-20T08:24:28.284Z,16.98
2022-09-20T08:25:33.383Z,16.87
2022-09-20T08:26:42.511Z,16.80
2022-09-20T08:27:53.624Z,16.67
2022-09-20T08:29:00.103Z,16.59
2022-09-20T08:30:04.807Z,16.57
2022-09-20T08:31:13.527Z,16.50
2022-09-20T08:32:19.963Z,16.37
2022-09-20T08:33:24.266Z,16.29
2022-09-20T08:34:28.356Z,16.25
2022-09-20T08:35:38.215Z,16.10
2022-09-20T08:36:47.167Z,15.95
2022-09-20T08:37:55.205Z,15.79
2022-09-20T08:40:24.997Z,15.40
2022-09-20T08:41:34.325Z,15.43
2022-09-20T08:42:43.732Z,15.32
2022-09-20T08:44:03.810Z,15.18
2022-09-20T08:45:34.522Z,15.18
2022-09-20T08:46:51.934Z,15.10
2022-09-20T08:48:05.845Z,15.00
2022-09-20T08:49:23.518Z,14.97
2022-09-20T08:50:28.926Z,14.89
2022-09-20T08:51:41.964Z,14.87
2022-09-20T08:52:49.806Z,14.80
2022-09-20T08:53:56.395Z,14.79
2022-09-20T08:55:07.457Z,14.73
2022-09-20T08:56:11.913Z,14.89
2022-09-20T08:57:20.548Z,14.76
2022-09-20T08:58:28.358Z,14.97
2022-09-20T08:59:33.769Z,15.00
2022-09-20T09:00:45.071Z,15.08
2022-09-20T09:01:55.291Z,15.22
2022-09-20T09:03:12.960Z,15.26
2022-09-20T09:04:24.414Z,15.27
2022-09-20T09:05:53.125Z,15.25
2022-09-20T09:06:57.837Z,15.30
2022-09-20T09:08:16.995Z,15.24
2022-09-20T09:09:28.048Z,15.22
2022-09-20T09:11:16.622Z,15.26
2022-09-20T09:12:30.831Z,15.47
2022-09-20T09:13:54.062Z,15.54
2022-09-20T09:15:18.183Z,15.58
2022-09-20T09:16:33.648Z,15.56
2022-09-20T09:17:38.946Z,15.54
2022-09-20T09:18:45.975Z,15.77
2022-09-20T09:19:57.328Z,16.26
2022-09-20T09:21:04.342Z,17.01
2022-09-20T09:22:08.277Z,17.78
2022-09-20T09:23:26.545Z,18.58
2022-09-20T09:24:34.080Z,18.96
2022-09-20T09:25:42.148Z,19.34
2022-09-20T09:26:47.163Z,19.63
2022-09-20T09:27:57.967Z,19.86
2022-09-20T09:29:21.868Z,20.09
2022-09-20T09:30:47.897Z,20.10
2022-09-20T09:32:31.313Z,20.11
2022-09-20T09:33:35.169Z,20.06
2022-09-20T09:34:39.020Z,20.01
2022-09-20T09:35:45.489Z,19.96
2022-09-20T09:36:57.484Z,19.93
2022-09-20T09:38:03.103Z,19.79
2022-09-20T09:39:39.453Z,19.60
2022-09-20T09:40:59.097Z,19.52
2022-09-20T09:42:30.171Z,19.35
2022-09-20T09:43:41.063Z,19.00
2022-09-20T09:44:50.558Z,18.85
2022-09-20T09:46:21.163Z,18.83
2022-09-20T09:47:41.167Z,18.71
2022-09-20T09:48:54.421Z,18.72
2022-09-20T09:50:06.255Z,18.69
2022-09-20T09:51:23.736Z,18.68
2022-09-20T09:52:33.387Z,18.70
2022-09-20T09:53:39.482Z,18.61
2022-09-20T09:54:55.252Z,18.53
2022-09-20T09:57:03.079Z,18.31
2022-09-20T09:58:22.003Z,18.08
2022-09-20T09:59:51.836Z,17.89
2022-09-20T10:00:59.781Z,17.74
2022-09-20T10:02:41.320Z,17.45
2022-09-20T10:04:11.222Z,17.17
2022-09-20T10:05:41.423Z,16.99
2022-09-20T10:07:23.702Z,16.71
2022-09-20T10:09:33.685Z,16.52
2022-09-20T10:11:12.301Z,16.21
2022-09-20T10:12:33.577Z,16.09
2022-09-20T10:13:46.305Z,15.99
2022-09-20T10:15:35.202Z,15.90
2022-09-20T10:17:16.749Z,15.77
2022-09-20T10:18:51.051Z,15.66
2022-09-20T10:20:30.121Z,15.50
2022-09-20T10:22:31.474Z,15.42
2022-09-20T10:25:40.714Z,15.23
2022-09-20T10:27:29.996Z,15.16
2022-09-20T10:29:15.868Z,15.07
2022-09-20T10:30:48.702Z,14.94
2022-09-20T10:31:52.538Z,14.85
2022-09-20T10:33:01.155Z,14.85
2022-09-20T10:34:45.912Z,14.76
2022-09-20T10:36:15.500Z,14.70
2022-09-20T10:37:53.084Z,14.67
2022-09-20T10:39:27.373Z,14.61
2022-09-20T10:41:06.676Z,14.59
2022-09-20T10:43:16.103Z,14.58
2022-09-20T10:44:19.702Z,14.55
2022-09-20T10:46:31.373Z,14.52
2022-09-20T10:47:59.330Z,14.42
2022-09-20T10:49:25.069Z,14.42
2022-09-20T10:51:06.289Z,14.40
2022-09-20T10:52:16.115Z,14.38
2022-09-20T10:53:35.490Z,13.99
2022-09-20T10:54:41.796Z,14.33
2022-09-20T10:56:16.911Z,14.34
2022-09-20T10:57:53.072Z,14.37
2022-09-20T10:59:40.384Z,14.40
2022-09-20T11:01:04.003Z,14.45
2022-09-20T11:02:26.738Z,14.49
2022-09-20T11:04:04.235Z,14.53
2022-09-20T11:05:33.317Z,14.60
2022-09-20T11:07:03.735Z,14.69
2022-09-20T11:08:26.423Z,14.69
2022-09-20T11:09:42.912Z,14.76
2022-09-20T11:10:55.221Z,14.80
2022-09-20T11:12:42.743Z,14.85
2022-09-20T11:13:59.433Z,14.88
2022-09-20T11:15:21.701Z,14.91
2022-09-20T11:17:00.607Z,14.96
2022-09-20T11:18:15.096Z,14.91
2022-09-20T11:20:12.894Z,14.92
2022-09-20T11:21:48.635Z,14.96
2022-09-20T11:23:19.368Z,14.92
2022-09-20T11:24:45.350Z,14.99
2022-09-20T11:25:58.796Z,15.03
2022-09-20T11:27:33.175Z,15.10
2022-09-20T11:28:52.577Z,15.15
2022-09-20T11:30:04.620Z,15.24
2022-09-20T11:31:22.559Z,15.33
2022-09-20T11:32:39.764Z,15.40
2022-09-20T11:34:02.632Z,15.47
2022-09-20T11:35:12.053Z,15.63
2022-09-20T11:36:28.725Z,15.69
2022-09-20T11:37:46.797Z,15.76
2022-09-20T11:39:07.825Z,15.76
2022-09-20T11:40:28.943Z,15.82
2022-09-20T11:41:36.258Z,15.83
2022-09-20T11:42:42.689Z,15.84
2022-09-20T11:43:49.043Z,15.83
2022-09-20T11:44:55.296Z,15.84
2022-09-20T11:46:14.142Z,15.82
2022-09-20T11:47:52.849Z,15.83
2022-09-20T11:49:20.900Z,15.88
2022-09-20T11:51:10.253Z,15.92
2022-09-20T11:53:06.637Z,16.00
2022-09-20T11:54:56.073Z,15.98
2022-09-20T11:56:20.787Z,16.03
2022-09-20T11:57:25.882Z,15.97
2022-09-20T11:58:31.667Z,15.97
2022-09-20T11:59:51.591Z,16.01
2022-09-20T12:00:59.539Z,16.03
2022-09-20T12:02:18.366Z,16.03
2022-09-20T12:03:36.418Z,15.96
2022-09-20T12:04:49.662Z,15.97
2022-09-20T12:06:01.924Z,15.96
2022-09-20T12:07:19.760Z,16.01
2022-09-20T12:08:35.817Z,16.00
2022-09-20T12:09:45.675Z,15.99
2022-09-20T12:11:11.473Z,15.96
2022-09-20T12:12:28.369Z,15.96
2022-09-20T12:13:39.111Z,15.88
2022-09-20T12:14:55.229Z,15.87
2022-09-20T12:16:05.780Z,15.86
2022-09-20T12:17:47.789Z,15.82
2022-09-20T12:18:54.097Z,15.82
2022-09-20T12:19:57.649Z,15.81
2022-09-20T12:21:16.590Z,15.81
2022-09-20T12:22:30.154Z,15.79
2022-09-20T12:23:46.127Z,15.80
2022-09-20T12:25:39.305Z,15.83
2022-09-20T12:26:45.078Z,15.86
2022-09-20T12:27:48.724Z,15.90
2022-09-20T12:28:55.343Z,15.88
2022-09-20T12:30:24.072Z,16.02
2022-09-20T12:31:34.335Z,16.09
2022-09-20T12:32:58.942Z,16.18
2022-09-20T12:34:10.204Z,16.23
2022-09-20T12:35:45.498Z,16.29
2022-09-20T12:36:54.843Z,16.30
2022-09-20T12:38:33.225Z,16.28
2022-09-20T12:39:52.692Z,16.26
2022-09-20T12:41:06.710Z,16.26
2022-09-20T12:42:10.681Z,16.22
2022-09-20T12:43:22.900Z,16.15
2022-09-20T12:44:45.667Z,16.13
2022-09-20T12:46:02.887Z,16.00
2022-09-20T12:47:11.017Z,16.11
2022-09-20T12:48:20.196Z,16.07
2022-09-20T12:50:06.141Z,16.10
2022-09-20T12:51:44.197Z,16.09
2022-09-20T12:52:54.221Z,16.12
2022-09-20T12:54:03.010Z,16.04
2022-09-20T12:55:11.004Z,16.15
2022-09-20T12:56:28.136Z,16.16
2022-09-20T12:57:35.848Z,16.18
2022-09-20T12:58:58.003Z,16.26
2022-09-20T13:00:06.321Z,16.28
2022-09-20T13:01:14.080Z,16.32
2022-09-20T13:02:52.645Z,16.35
2022-09-20T13:04:55.503Z,16.42
2022-09-20T13:06:12.477Z,16.47
2022-09-20T13:07:44.046Z,16.48
2022-09-20T13:09:02.017Z,16.41
2022-09-20T13:10:30.652Z,16.32
2022-09-20T13:11:47.740Z,16.34
2022-09-20T13:13:02.685Z,16.27
2022-09-20T13:14:09.417Z,16.25
2022-09-20T13:15:21.646Z,16.16
2022-09-20T13:16:37.331Z,16.14
2022-09-20T13:17:43.568Z,16.10
2022-09-20T13:18:48.946Z,16.06
2022-09-20T13:19:54.908Z,16.03
2022-09-20T13:21:07.114Z,15.98
2022-09-20T13:22:37.961Z,15.92
2022-09-20T13:23:54.364Z,15.93
2022-09-20T13:25:05.787Z,15.93
2022-09-20T13:26:13.510Z,15.98
2022-09-20T13:27:51.115Z,16.04
2022-09-20T13:28:59.208Z,16.04
2022-09-20T13:30:25.523Z,16.08
2022-09-20T13:31:33.813Z,16.09
2022-09-20T13:32:41.786Z,16.07
2022-09-20T13:33:45.454Z,16.01
2022-09-20T13:35:19.033Z,16.06
2022-09-20T13:36:30.558Z,16.03
2022-09-20T13:37:37.039Z,15.96
2022-09-20T13:38:41.795Z,15.97
2022-09-20T13:39:45.364Z,15.98
2022-09-20T13:40:51.749Z,15.95
2022-09-20T13:42:02.659Z,15.93
2022-09-20T13:43:25.438Z,15.90
2022-09-20T13:44:34.552Z,15.85
2022-09-20T13:45:53.662Z,15.85
2022-09-20T13:46:57.420Z,15.85
2022-09-20T13:48:02.310Z,15.80
2022-09-20T13:49:24.962Z,15.75
2022-09-20T13:50:40.943Z,15.73
2022-09-20T13:51:49.033Z,15.67
2022-09-20T13:52:58.146Z,15.57
2022-09-20T13:54:28.670Z,15.57
2022-09-20T13:55:42.140Z,15.49
2022-09-20T13:56:46.146Z,15.43
2022-09-20T13:57:49.833Z,15.37
2022-09-20T13:58:55.965Z,15.27
2022-09-20T14:00:01.887Z,15.21
2022-09-20T14:01:31.265Z,15.21
2022-09-20T14:02:35.173Z,15.13
2022-09-20T14:03:39.631Z,15.15
2022-09-20T14:04:44.372Z,15.11
2022-09-20T14:06:00.294Z,15.08
2022-09-20T14:07:08.444Z,15.17
2022-09-20T14:08:29.036Z,15.20
2022-09-20T14:09:39.527Z,15.18
2022-09-20T14:10:43.901Z,15.17
2022-09-20T14:11:48.846Z,15.28
2022-09-20T14:12:54.700Z,15.30
2022-09-20T14:14:05.157Z,15.31
2022-09-20T14:15:11.497Z,15.32
2022-09-20T14:16:18.646Z,15.39
2022-09-20T14:17:25.084Z,15.41
2022-09-20T14:18:28.897Z,15.36
2022-09-20T14:19:41.623Z,15.38
2022-09-20T14:20:46.606Z,15.38
2022-09-20T14:21:50.625Z,15.43
2022-09-20T14:22:59.064Z,15.46
2022-09-20T14:24:28.893Z,15.43
2022-09-20T14:25:33.920Z,15.41
2022-09-20T14:26:40.407Z,15.40
2022-09-20T14:27:44.571Z,15.38
2022-09-20T14:28:48.882Z,15.36
2022-09-20T14:29:55.082Z,15.36
2022-09-20T14:31:14.344Z,15.37
2022-09-20T14:32:18.069Z,15.39
2022-09-20T14:33:21.870Z,15.32
2022-09-20T14:34:26.401Z,15.36
2022-09-20T14:35:31.379Z,15.39
2022-09-20T14:36:34.914Z,15.43
2022-09-20T14:37:50.789Z,15.48
2022-09-20T14:39:06.814Z,15.42
2022-09-20T14:40:21.958Z,15.49
2022-09-20T14:41:31.831Z,15.47
2022-09-20T14:42:42.650Z,15.49
2022-09-20T14:43:46.184Z,15.50
2022-09-20T14:44:53.181Z,15.47
2022-09-20T14:46:01.647Z,15.43
2022-09-20T14:47:16.142Z,15.52
2022-09-20T14:48:19.674Z,15.53
2022-09-20T14:49:26.235Z,15.55
2022-09-20T14:50:43.853Z,15.54
2022-09-20T14:51:49.630Z,15.56
2022-09-20T14:53:11.444Z,15.58
2022-09-20T14:54:22.595Z,15.57
2022-09-20T14:55:33.794Z,15.56
2022-09-20T14:56:51.268Z,15.54
2022-09-20T14:58:11.416Z,15.51
2022-09-20T14:59:14.893Z,15.53
2022-09-20T15:00:19.650Z,15.52
2022-09-20T15:01:26.004Z,15.49
2022-09-20T15:02:29.899Z,15.48
2022-09-20T15:03:40.251Z,15.48
2022-09-20T15:05:00.381Z,15.44
2022-09-20T15:06:04.297Z,15.44
2022-09-20T15:07:11.673Z,15.37
2022-09-20T15:08:15.925Z,15.31
2022-09-20T15:09:22.049Z,15.35
2022-09-20T15:10:25.771Z,15.32
2022-09-20T15:11:30.202Z,15.33
2022-09-20T15:12:33.880Z,15.31
2022-09-20T15:13:38.057Z,15.28
2022-09-20T15:14:42.429Z,15.24
2022-09-20T15:15:52.785Z,15.23
2022-09-20T15:16:58.844Z,15.22
2022-09-20T15:18:03.449Z,15.17
2022-09-20T15:19:08.685Z,15.21
2022-09-20T15:20:24.362Z,15.23
2022-09-20T15:21:28.553Z,15.24
2022-09-20T15:22:32.753Z,15.23
2022-09-20T15:23:37.140Z,15.21
2022-09-20T15:24:41.677Z,15.23
2022-09-20T15:25:45.795Z,15.21
2022-09-20T15:26:49.553Z,15.23
2022-09-20T15:27:53.340Z,15.24
2022-09-20T15:28:56.958Z,15.27
2022-09-20T15:30:00.999Z,15.24
2022-09-20T15:31:05.137Z,15.18
2022-09-20T15:32:11.388Z,15.20
2022-09-20T15:33:15.551Z,15.20
2022-09-20T15:34:19.671Z,15.21
2022-09-20T15:35:23.617Z,15.22
2022-09-20T15:36:32.026Z,15.24
2022-09-20T15:37:36.311Z,15.22
2022-09-20T15:38:39.828Z,15.21
2022-09-20T15:39:43.593Z,15.20
2022-09-20T15:40:50.130Z,15.21
2022-09-20T15:41:54.425Z,15.17
2022-09-20T15:42:59.563Z,15.11
2022-09-20T15:44:07.243Z,15.10
2022-09-20T15:45:12.718Z,15.17
2022-09-20T15:46:23.011Z,15.16
2022-09-20T15:47:28.522Z,15.18
2022-09-20T15:48:32.143Z,15.16
2022-09-20T15:49:35.774Z,15.17
2022-09-20T15:50:40.521Z,15.18
2022-09-20T15:51:44.171Z,15.20
2022-09-20T15:52:49.242Z,15.17
2022-09-20T15:54:06.427Z,15.08
2022-09-20T15:55:10.216Z,15.14
2022-09-20T15:56:32.100Z,15.11
2022-09-20T15:57:36.351Z,15.06
2022-09-20T15:58:45.767Z,15.08
2022-09-20T15:59:50.219Z,15.06
2022-09-20T16:00:54.053Z,14.99
2022-09-20T16:01:57.648Z,15.09
2022-09-20T16:03:01.983Z,15.06
2022-09-20T16:04:10.462Z,15.12
2022-09-20T16:05:16.828Z,15.03
2022-09-20T16:06:26.360Z,15.10
2022-09-20T16:07:30.142Z,15.10
2022-09-20T16:08:36.190Z,15.07
2022-09-20T16:09:39.893Z,15.07
2022-09-20T16:10:46.085Z,15.02
2022-09-20T16:11:49.946Z,14.95
2022-09-20T16:12:53.588Z,14.93
2022-09-20T16:14:01.326Z,14.86
2022-09-20T16:15:05.455Z,14.84
2022-09-20T16:16:15.853Z,14.81
2022-09-20T16:17:39.976Z,14.79
2022-09-20T16:19:02.110Z,14.72
2022-09-20T16:20:07.027Z,14.69
2022-09-20T16:21:13.725Z,14.62
2022-09-20T16:22:19.479Z,14.55
2022-09-20T16:23:26.016Z,14.55
2022-09-20T16:24:33.689Z,14.54
2022-09-20T16:25:37.408Z,14.49
2022-09-20T16:26:41.756Z,14.44
2022-09-20T16:27:45.423Z,14.49
2022-09-20T16:28:49.981Z,14.45
2022-09-20T16:29:53.887Z,14.41
2022-09-20T16:30:59.428Z,14.43
2022-09-20T16:32:03.889Z,14.39
2022-09-20T16:33:11.914Z,14.38
2022-09-20T16:34:19.741Z,14.35
2022-09-20T16:35:23.361Z,14.31
2022-09-20T16:36:27.754Z,14.29
2022-09-20T16:37:32.899Z,14.23
2022-09-20T16:38:39.795Z,14.23
2022-09-20T16:39:44.401Z,14.14
2022-09-20T16:40:55.834Z,14.16
2022-09-20T16:42:05.767Z,14.14
2022-09-20T16:43:09.747Z,14.06
2022-09-20T16:44:14.083Z,14.05
2022-09-20T16:45:23.769Z,14.03
2022-09-20T16:46:31.202Z,14.02
2022-09-20T16:47:34.990Z,14.00
2022-09-20T16:48:38.544Z,13.98
2022-09-20T16:49:42.374Z,13.96
2022-09-20T16:50:54.710Z,13.94
2022-09-20T16:51:58.226Z,13.92
2022-09-20T16:53:01.944Z,13.90
2022-09-20T16:54:14.849Z,13.87
2022-09-20T16:55:19.844Z,13.86
2022-09-20T16:56:27.788Z,13.76
2022-09-20T16:57:32.200Z,13.83
2022-09-20T16:58:36.703Z,13.82
2022-09-20T16:59:40.910Z,13.79
2022-09-20T17:00:44.555Z,13.78
2022-09-20T17:01:49.925Z,13.76
2022-09-20T17:02:53.422Z,13.74
2022-09-20T17:03:57.353Z,13.69
2022-09-20T17:05:01.175Z,13.72
2022-09-20T17:06:06.091Z,13.71
2022-09-20T17:07:09.685Z,13.67
2022-09-20T17:08:14.084Z,13.67
2022-09-20T17:09:18.066Z,13.66
2022-09-20T17:10:24.412Z,13.65
2022-09-20T17:11:31.458Z,13.63
2022-09-20T17:12:41.551Z,13.61
2022-09-20T17:13:47.224Z,13.63
2022-09-20T17:14:50.933Z,13.60
2022-09-20T17:16:10.558Z,13.56
2022-09-20T17:17:14.023Z,13.56
2022-09-20T17:18:17.574Z,13.56
2022-09-20T17:19:21.804Z,13.52
2022-09-20T17:20:27.589Z,13.51
2022-09-20T17:21:32.414Z,13.51
2022-09-20T17:22:36.001Z,13.49
2022-09-20T17:23:42.338Z,13.43
2022-09-20T17:24:46.141Z,13.46
2022-09-20T17:26:02.210Z,13.42
2022-09-20T17:27:07.134Z,13.43
2022-09-20T17:28:10.708Z,13.42
2022-09-20T17:29:17.572Z,13.39
2022-09-20T17:30:22.348Z,13.34
2022-09-20T17:31:33.858Z,13.37
2022-09-20T17:32:39.283Z,13.35
2022-09-20T17:37:13.830Z,13.20
2022-09-20T17:38:17.582Z,13.17
2022-09-20T17:39:22.234Z,13.15
2022-09-20T17:40:25.840Z,13.15
2022-09-20T17:41:30.555Z,13.14
2022-09-20T17:42:34.912Z,13.13
2022-09-20T17:43:39.646Z,13.10
2022-09-20T17:44:43.369Z,13.05
2022-09-20T17:45:46.857Z,13.11
2022-09-20T17:46:51.612Z,13.12
2022-09-20T17:47:57.430Z,13.07
2022-09-20T17:49:06.961Z,13.16
2022-09-20T17:50:14.837Z,13.11
2022-09-20T17:51:20.374Z,13.14
2022-09-20T17:52:23.865Z,13.15
2022-09-20T17:53:27.623Z,13.12
2022-09-20T17:54:31.083Z,13.14
2022-09-20T17:55:34.598Z,13.16
2022-09-20T17:56:38.571Z,13.16
2022-09-20T17:57:42.083Z,13.17